Time;durP1;ratioP1;P1;durP2;ratioP2;P2;SDS_P1;SDS_P2;PMS_P1;PMS_P2;Temp;Humidity;BMP_temperature;BMP_pressure;BME280_temperature;BME280_humidity;BME280_pressure;Samples;Min_cycle;Max_cycle;Signal;HPM_P1;HPM_P2
2021/06/29 00:02:02;;;;;;;20.05;7.70;;;18.70;95.70;;;;;;3575187;40;20045;-77
2021/06/29 00:04:28;;;;;;;20.95;6.80;;;18.70;95.60;;;;;;3585663;40;20050;-77
2021/06/29 00:06:54;;;;;;;17.42;5.88;;;18.70;95.70;;;;;;3586578;40;20059;-77
2021/06/29 00:09:20;;;;;;;12.55;6.28;;;18.70;95.70;;;;;;3581505;40;20138;-77
2021/06/29 00:11:46;;;;;;;17.40;6.63;;;18.70;95.90;;;;;;3567221;40;20057;-77
2021/06/29 00:14:12;;;;;;;17.13;6.18;;;18.70;96.10;;;;;;3583538;40;20122;-78
2021/06/29 00:16:37;;;;;;;12.80;5.82;;;18.70;96.40;;;;;;3579328;40;20036;-77
2021/06/29 00:19:03;;;;;;;14.23;5.55;;;18.60;96.20;;;;;;3574177;40;20063;-77
2021/06/29 00:21:29;;;;;;;22.73;7.07;;;18.60;96.00;;;;;;3576551;40;20387;-78
2021/06/29 00:23:56;;;;;;;14.80;5.72;;;18.60;96.60;;;;;;3576364;40;20053;-77
2021/06/29 00:26:21;;;;;;;16.95;6.15;;;18.60;96.40;;;;;;3576657;40;20055;-78
2021/06/29 00:28:47;;;;;;;14.10;6.40;;;18.60;96.40;;;;;;3581653;40;20040;-77
2021/06/29 00:31:14;;;;;;;21.00;7.35;;;18.60;96.60;;;;;;3582067;40;20362;-77
2021/06/29 00:33:40;;;;;;;17.77;6.55;;;18.50;96.40;;;;;;3586291;40;20036;-77
2021/06/29 00:36:06;;;;;;;17.23;7.00;;;18.50;96.60;;;;;;3577237;40;20056;-78
2021/06/29 00:38:32;;;;;;;18.65;8.02;;;18.50;96.80;;;;;;3585541;40;20322;-77
2021/06/29 00:40:59;;;;;;;22.90;7.82;;;18.40;97.30;;;;;;3586301;40;20055;-78
2021/06/29 00:43:25;;;;;;;21.98;7.85;;;18.40;96.80;;;;;;3586676;40;20045;-78
2021/06/29 00:45:50;;;;;;;16.20;7.70;;;18.40;96.80;;;;;;3586272;40;20450;-77
2021/06/29 00:48:16;;;;;;;22.83;7.25;;;18.40;97.30;;;;;;3576851;40;20047;-77
2021/06/29 00:50:44;;;;;;;16.73;7.05;;;18.40;97.00;;;;;;3586262;40;20220;-78
2021/06/29 00:53:11;;;;;;;18.35;6.82;;;18.40;96.80;;;;;;3586234;40;20095;-77
2021/06/29 00:55:38;;;;;;;24.23;8.40;;;18.40;97.30;;;;;;3586576;40;20131;-79
2021/06/29 00:58:12;;;;;;;18.45;7.78;;;18.30;97.20;;;;;;3585198;40;20047;-78
2021/06/29 01:00:41;;;;;;;15.40;7.00;;;18.30;97.70;;;;;;3586290;40;20036;-78
2021/06/29 01:03:07;;;;;;;18.58;8.27;;;18.30;96.90;;;;;;3576816;40;20296;-78
2021/06/29 01:05:34;;;;;;;19.02;8.70;;;18.40;97.00;;;;;;3569035;40;20320;-77
2021/06/29 01:08:00;;;;;;;18.17;7.95;;;18.30;96.80;;;;;;3576676;40;20607;-77
2021/06/29 01:10:27;;;;;;;20.42;8.68;;;18.40;97.10;;;;;;3586144;40;20052;-77
2021/06/29 01:12:53;;;;;;;16.45;9.07;;;18.40;97.10;;;;;;3583008;40;20048;-78
2021/06/29 01:15:23;;;;;;;14.35;8.45;;;18.40;97.00;;;;;;3576210;40;20053;-78
2021/06/29 01:17:56;;;;;;;21.38;8.05;;;18.40;96.80;;;;;;3580727;40;20056;-77
2021/06/29 01:20:30;;;;;;;21.92;9.05;;;18.40;97.20;;;;;;3581013;40;20072;-77
2021/06/29 01:23:07;;;;;;;20.13;7.63;;;18.40;97.30;;;;;;3569484;40;20052;-78
2021/06/29 01:25:33;;;;;;;18.80;7.88;;;18.40;97.30;;;;;;3585628;40;20040;-78
2021/06/29 01:28:22;;;;;;;18.60;8.63;;;18.40;97.10;;;;;;3576518;40;20425;-77
2021/06/29 01:31:00;;;;;;;17.95;7.60;;;18.40;96.90;;;;;;3584626;40;20051;-77
2021/06/29 01:33:27;;;;;;;17.83;7.25;;;18.40;96.90;;;;;;3586051;40;20040;-78
2021/06/29 01:35:53;;;;;;;13.60;6.82;;;18.40;96.80;;;;;;3585566;40;20048;-78
2021/06/29 01:38:22;;;;;;;24.98;10.52;;;18.30;96.80;;;;;;3585830;40;20137;-78
2021/06/29 01:40:49;;;;;;;16.30;8.07;;;18.30;96.80;;;;;;3576184;40;20087;-78
2021/06/29 01:43:21;;;;;;;14.90;6.97;;;18.30;96.70;;;;;;3575477;40;20057;-78
2021/06/29 01:45:49;;;;;;;11.20;6.15;;;18.30;96.70;;;;;;3566698;40;20064;-78
2021/06/29 01:48:21;;;;;;;15.32;6.85;;;18.30;96.70;;;;;;3585946;40;20045;-78
2021/06/29 01:50:49;;;;;;;19.17;6.95;;;18.30;96.70;;;;;;3586174;40;20075;-77
2021/06/29 01:53:15;;;;;;;13.68;6.22;;;18.30;96.70;;;;;;3586113;40;20064;-77
2021/06/29 01:55:41;;;;;;;15.93;6.93;;;18.30;96.70;;;;;;3586421;40;20044;-78
2021/06/29 01:58:07;;;;;;;17.67;8.50;;;18.30;96.70;;;;;;3582337;40;20046;-77
2021/06/29 02:00:33;;;;;;;14.32;6.35;;;18.20;96.80;;;;;;3586480;40;20036;-77
2021/06/29 02:02:59;;;;;;;16.92;7.35;;;18.20;96.60;;;;;;3584249;40;20043;-77
2021/06/29 02:05:25;;;;;;;18.52;6.75;;;18.20;96.60;;;;;;3576210;40;20417;-77
2021/06/29 02:07:51;;;;;;;19.95;7.63;;;18.20;97.00;;;;;;3585732;40;20052;-77
2021/06/29 02:10:17;;;;;;;20.13;7.35;;;18.20;96.70;;;;;;3585481;40;20029;-77
2021/06/29 02:12:47;;;;;;;15.50;6.65;;;18.20;96.70;;;;;;3575264;40;20129;-77
2021/06/29 02:15:13;;;;;;;19.05;6.22;;;18.20;96.70;;;;;;3585571;40;20036;-77
2021/06/29 02:17:39;;;;;;;15.20;7.80;;;18.20;96.70;;;;;;3585951;40;20049;-77
2021/06/29 02:20:07;;;;;;;14.80;6.28;;;18.20;96.90;;;;;;3585513;40;20242;-77
2021/06/29 02:22:33;;;;;;;17.23;7.07;;;18.20;96.80;;;;;;3584624;40;20036;-77
2021/06/29 02:24:59;;;;;;;18.85;6.78;;;18.20;96.80;;;;;;3576045;40;20048;-78
2021/06/29 02:27:29;;;;;;;17.83;7.40;;;18.10;97.00;;;;;;3585854;40;20105;-77
2021/06/29 02:29:58;;;;;;;15.98;7.38;;;18.10;97.10;;;;;;3584355;40;20036;-77
2021/06/29 02:32:25;;;;;;;21.95;9.20;;;18.10;97.10;;;;;;3583379;40;20044;-77
2021/06/29 02:34:51;;;;;;;18.73;7.57;;;18.10;97.30;;;;;;3585541;40;20142;-77
2021/06/29 02:37:17;;;;;;;24.42;8.07;;;18.00;97.30;;;;;;3585566;40;20058;-78
2021/06/29 02:39:43;;;;;;;20.33;7.72;;;18.00;97.20;;;;;;3582314;40;20083;-78
2021/06/29 02:42:09;;;;;;;20.35;7.80;;;18.00;97.30;;;;;;3585926;40;20044;-78
2021/06/29 02:44:36;;;;;;;28.45;7.78;;;18.00;97.20;;;;;;3585967;40;20053;-78
2021/06/29 02:47:03;;;;;;;21.20;6.93;;;18.00;97.10;;;;;;3586614;40;20087;-78
2021/06/29 02:49:29;;;;;;;10.75;5.75;;;18.00;97.10;;;;;;3576978;40;20052;-77
2021/06/29 02:51:55;;;;;;;18.38;6.90;;;18.00;97.10;;;;;;3567647;40;20088;-78
2021/06/29 02:54:21;;;;;;;22.95;7.43;;;18.00;97.00;;;;;;3585345;40;20046;-78
2021/06/29 02:56:48;;;;;;;18.33;6.82;;;18.00;97.20;;;;;;3585787;40;20268;-78
2021/06/29 02:59:15;;;;;;;21.25;6.88;;;18.00;97.20;;;;;;3585786;40;20044;-77
2021/06/29 03:01:43;;;;;;;15.75;6.68;;;18.00;97.20;;;;;;3585605;40;20075;-78
2021/06/29 03:04:09;;;;;;;21.33;7.85;;;18.00;97.20;;;;;;3585552;40;20350;-77
2021/06/29 03:06:36;;;;;;;21.20;6.47;;;18.00;97.20;;;;;;3577064;40;20049;-77
2021/06/29 03:09:04;;;;;;;26.15;7.28;;;18.00;97.10;;;;;;3586512;40;20041;-77
2021/06/29 03:11:30;;;;;;;17.38;7.88;;;18.00;97.10;;;;;;3577645;40;20048;-77
2021/06/29 03:13:56;;;;;;;21.88;6.78;;;18.00;97.10;;;;;;3567025;40;20114;-78
2021/06/29 03:16:22;;;;;;;14.30;6.43;;;18.00;97.20;;;;;;3587272;40;20317;-77
2021/06/29 03:18:48;;;;;;;22.63;7.93;;;18.00;97.30;;;;;;3577676;40;20056;-77
2021/06/29 03:21:14;;;;;;;20.40;7.10;;;17.90;97.30;;;;;;3584970;40;20182;-77
2021/06/29 03:23:40;;;;;;;18.33;7.10;;;17.90;97.30;;;;;;3569410;40;20036;-77
2021/06/29 03:26:06;;;;;;;22.13;6.40;;;17.90;97.40;;;;;;3585913;40;20036;-77
2021/06/29 03:28:32;;;;;;;18.38;7.32;;;17.90;97.40;;;;;;3577072;40;20405;-78
2021/06/29 03:30:58;;;;;;;16.33;6.25;;;17.90;97.40;;;;;;3572976;40;20067;-77
2021/06/29 03:33:24;;;;;;;22.40;7.88;;;17.90;97.40;;;;;;3577588;40;20526;-78
2021/06/29 03:35:49;;;;;;;25.35;9.55;;;17.90;97.50;;;;;;3586623;40;20056;-77
2021/06/29 03:38:15;;;;;;;19.98;6.63;;;17.90;97.60;;;;;;3586391;40;20037;-77
2021/06/29 03:40:41;;;;;;;19.73;8.40;;;17.90;97.60;;;;;;3584756;40;20420;-77
2021/06/29 03:43:07;;;;;;;14.68;6.97;;;17.90;97.60;;;;;;3586409;40;20044;-77
2021/06/29 03:45:33;;;;;;;22.05;6.53;;;17.90;97.70;;;;;;3575895;40;20060;-77
2021/06/29 03:47:59;;;;;;;20.17;7.97;;;17.90;97.50;;;;;;3575930;40;20045;-78
2021/06/29 03:50:26;;;;;;;17.70;7.65;;;17.90;97.50;;;;;;3567507;40;20049;-77
2021/06/29 03:52:53;;;;;;;20.85;8.13;;;17.90;97.60;;;;;;3585602;40;20338;-78
2021/06/29 03:55:19;;;;;;;25.25;8.60;;;17.90;97.50;;;;;;3586614;40;20051;-77
2021/06/29 03:57:45;;;;;;;18.63;8.32;;;17.90;97.50;;;;;;3584271;40;20040;-77
2021/06/29 04:00:11;;;;;;;21.10;7.25;;;17.90;97.50;;;;;;3586536;40;20044;-77
2021/06/29 04:02:37;;;;;;;17.95;6.88;;;17.90;97.30;;;;;;3581096;40;20059;-77
2021/06/29 04:05:05;;;;;;;13.48;6.07;;;17.90;97.50;;;;;;3577387;40;20424;-77
2021/06/29 04:07:31;;;;;;;15.43;8.13;;;18.00;97.60;;;;;;3585891;40;20044;-78
2021/06/29 04:09:57;;;;;;;23.00;7.97;;;18.00;97.90;;;;;;3585938;40;20048;-78
2021/06/29 04:12:25;;;;;;;25.35;7.22;;;18.00;97.70;;;;;;3586500;40;20048;-78
2021/06/29 04:14:51;;;;;;;22.00;8.77;;;18.10;97.70;;;;;;3585522;40;20040;-78
2021/06/29 04:17:17;;;;;;;20.33;7.57;;;18.10;97.70;;;;;;3568894;40;20044;-77
2021/06/29 04:19:43;;;;;;;16.73;7.65;;;18.10;97.70;;;;;;3586510;40;20577;-78
2021/06/29 04:22:09;;;;;;;18.95;7.68;;;18.10;97.80;;;;;;3577134;40;20599;-77
2021/06/29 04:24:35;;;;;;;15.77;7.95;;;18.10;97.80;;;;;;3586588;40;20247;-78
2021/06/29 04:27:02;;;;;;;22.20;10.00;;;18.20;97.70;;;;;;3586436;40;20040;-77
2021/06/29 04:29:28;;;;;;;16.08;8.25;;;18.20;97.90;;;;;;3586177;40;20052;-77
2021/06/29 04:31:54;;;;;;;18.55;7.05;;;18.20;97.70;;;;;;3576772;40;20041;-77
2021/06/29 04:34:20;;;;;;;14.93;8.07;;;18.20;97.60;;;;;;3586599;40;20375;-77
2021/06/29 04:36:46;;;;;;;13.82;6.03;;;18.20;97.60;;;;;;3586524;40;20130;-77
2021/06/29 04:39:12;;;;;;;30.42;9.82;;;18.20;97.50;;;;;;3583957;40;20047;-77
2021/06/29 04:41:38;;;;;;;28.38;8.63;;;18.20;97.50;;;;;;3586493;40;20036;-77
2021/06/29 04:44:06;;;;;;;20.17;7.82;;;18.30;97.70;;;;;;3577103;40;20382;-77
2021/06/29 04:46:32;;;;;;;15.73;7.68;;;18.30;97.60;;;;;;3586464;40;20055;-77
2021/06/29 04:48:59;;;;;;;15.20;7.10;;;18.30;97.60;;;;;;3586014;40;20327;-77
2021/06/29 04:51:25;;;;;;;19.05;7.53;;;18.40;97.90;;;;;;3585470;40;20055;-77
2021/06/29 04:53:51;;;;;;;14.57;7.85;;;18.40;97.70;;;;;;3586251;40;20447;-78
2021/06/29 04:56:17;;;;;;;19.35;8.63;;;18.40;97.80;;;;;;3586064;40;20044;-78
2021/06/29 04:58:45;;;;;;;20.52;7.80;;;18.40;97.80;;;;;;3576653;40;20047;-78
2021/06/29 05:01:11;;;;;;;24.45;9.02;;;18.40;97.80;;;;;;3585260;40;20072;-78
2021/06/29 05:03:39;;;;;;;14.38;6.65;;;18.40;97.90;;;;;;3567363;40;20070;-78
2021/06/29 05:06:04;;;;;;;19.27;7.95;;;18.40;97.80;;;;;;3575516;40;20339;-77
2021/06/29 05:08:30;;;;;;;21.48;6.93;;;18.40;98.00;;;;;;3580923;40;20111;-77
2021/06/29 05:10:57;;;;;;;14.13;7.63;;;18.50;97.80;;;;;;3582691;40;20112;-77
2021/06/29 05:13:22;;;;;;;17.80;6.38;;;18.50;97.70;;;;;;3570728;40;20040;-77
2021/06/29 05:15:48;;;;;;;14.75;5.82;;;18.50;97.70;;;;;;3570453;40;20037;-77
2021/06/29 05:18:16;;;;;;;20.23;8.00;;;18.50;97.60;;;;;;3581809;40;20287;-77
2021/06/29 05:20:42;;;;;;;14.30;6.93;;;18.50;97.70;;;;;;3584417;40;20036;-77
2021/06/29 05:23:08;;;;;;;11.35;6.35;;;18.60;97.60;;;;;;3583426;40;20040;-77
2021/06/29 05:25:34;;;;;;;21.05;7.60;;;18.60;97.70;;;;;;3576171;40;20135;-77
2021/06/29 05:28:00;;;;;;;20.88;8.85;;;18.60;97.80;;;;;;3585415;40;20447;-77
2021/06/29 05:30:27;;;;;;;15.45;7.32;;;18.70;97.90;;;;;;3575198;40;20032;-77
2021/06/29 05:32:53;;;;;;;19.35;7.18;;;18.70;97.80;;;;;;3583131;40;20168;-77
2021/06/29 05:35:19;;;;;;;20.83;8.98;;;18.70;97.80;;;;;;3563133;40;20048;-77
2021/06/29 05:37:45;;;;;;;14.95;7.32;;;18.70;97.90;;;;;;3583587;40;20138;-77
2021/06/29 05:40:11;;;;;;;21.55;9.32;;;18.70;97.90;;;;;;3582044;40;20238;-77
2021/06/29 05:42:37;;;;;;;18.95;8.13;;;18.80;98.10;;;;;;3574279;40;20045;-77
2021/06/29 05:45:05;;;;;;;14.10;7.32;;;18.80;97.90;;;;;;3574626;40;20335;-77
2021/06/29 05:47:34;;;;;;;26.70;9.90;;;18.80;98.00;;;;;;3584072;40;20129;-77
2021/06/29 05:50:00;;;;;;;22.02;8.35;;;18.70;97.90;;;;;;3575539;40;20497;-77
2021/06/29 05:52:26;;;;;;;20.30;8.85;;;18.70;98.00;;;;;;3572871;40;20044;-77
2021/06/29 05:54:55;;;;;;;19.90;9.13;;;18.70;98.00;;;;;;3583147;40;20043;-77
2021/06/29 05:57:21;;;;;;;17.85;8.07;;;18.80;98.00;;;;;;3565202;40;20069;-77
2021/06/29 05:59:47;;;;;;;24.23;8.63;;;18.80;98.10;;;;;;3583806;40;20238;-77
2021/06/29 06:02:13;;;;;;;16.10;8.50;;;18.80;98.20;;;;;;3575466;40;20040;-77
2021/06/29 06:04:39;;;;;;;26.10;9.65;;;18.90;98.10;;;;;;3584661;40;20055;-77
2021/06/29 06:07:05;;;;;;;14.93;7.65;;;18.90;98.00;;;;;;3585482;40;20048;-77
2021/06/29 06:09:32;;;;;;;20.63;9.63;;;18.90;97.90;;;;;;3580800;40;20057;-78
2021/06/29 06:11:58;;;;;;;19.33;8.50;;;19.00;98.10;;;;;;3582186;40;20080;-77
2021/06/29 06:14:24;;;;;;;23.58;10.90;;;19.00;98.10;;;;;;3584528;40;20323;-77
2021/06/29 06:16:49;;;;;;;28.65;11.35;;;19.00;98.10;;;;;;3583734;40;20041;-77
2021/06/29 06:19:23;;;;;;;22.20;9.85;;;19.00;98.00;;;;;;3585706;40;20109;-77
2021/06/29 06:21:49;;;;;;;18.77;9.88;;;19.10;98.00;;;;;;3583587;40;20131;-77
2021/06/29 06:24:15;;;;;;;17.38;10.75;;;19.10;98.10;;;;;;3585900;40;20145;-77
2021/06/29 06:26:42;;;;;;;21.83;12.15;;;19.10;98.10;;;;;;3576847;40;20236;-77
2021/06/29 06:29:08;;;;;;;29.27;14.75;;;19.10;98.00;;;;;;3586594;40;20040;-78
2021/06/29 06:31:41;;;;;;;;;;;19.10;98.00;;;;;;3585142;40;20047;-78
2021/06/29 06:34:07;;;;;;;26.73;14.05;;;19.20;98.50;;;;;;3582281;40;19928;-79
2021/06/29 06:36:34;;;;;;;29.85;13.55;;;19.20;97.90;;;;;;3583388;40;20048;-78
2021/06/29 06:39:01;;;;;;;32.88;14.30;;;19.30;97.90;;;;;;3573946;40;20032;-79
2021/06/29 06:41:27;;;;;;;30.88;14.65;;;19.30;97.90;;;;;;3585230;40;20040;-79
2021/06/29 06:43:53;;;;;;;22.63;12.02;;;19.30;97.90;;;;;;3574671;40;20051;-78
2021/06/29 06:46:18;;;;;;;26.48;13.30;;;19.40;97.90;;;;;;3585577;40;20048;-78
2021/06/29 06:48:46;;;;;;;22.27;13.95;;;19.40;97.90;;;;;;3576696;40;20045;-78
2021/06/29 06:51:12;;;;;;;27.23;13.57;;;19.40;98.00;;;;;;3567355;40;20104;-78
2021/06/29 06:53:38;;;;;;;28.05;13.65;;;19.50;98.00;;;;;;3568579;40;20251;-78
2021/06/29 06:56:04;;;;;;;25.75;15.40;;;19.60;97.90;;;;;;3575206;40;20123;-78
2021/06/29 06:58:30;;;;;;;30.92;14.65;;;19.60;97.90;;;;;;3585723;40;20251;-77
2021/06/29 07:00:56;;;;;;;31.27;14.48;;;19.60;97.90;;;;;;3586038;40;20040;-77
2021/06/29 07:03:22;;;;;;;27.55;13.70;;;19.70;97.80;;;;;;3587108;40;20340;-77
2021/06/29 07:05:48;;;;;;;30.27;13.60;;;19.80;97.90;;;;;;3583654;40;20076;-78
2021/06/29 07:08:14;;;;;;;40.58;17.95;;;19.80;97.90;;;;;;3581316;40;20693;-78
2021/06/29 07:10:40;;;;;;;36.03;20.40;;;19.90;97.90;;;;;;3584087;40;20052;-79
2021/06/29 07:13:06;;;;;;;29.98;18.50;;;20.00;97.60;;;;;;3563235;40;20037;-78
2021/06/29 07:15:33;;;;;;;37.30;19.30;;;20.10;97.60;;;;;;3576305;40;20040;-77
2021/06/29 07:17:59;;;;;;;32.40;18.98;;;20.10;97.50;;;;;;3584038;40;20052;-77
2021/06/29 07:20:26;;;;;;;32.85;19.92;;;20.10;97.50;;;;;;3586029;40;20151;-78
2021/06/29 07:22:52;;;;;;;30.00;18.30;;;20.10;97.50;;;;;;3576411;40;20315;-78
2021/06/29 07:25:20;;;;;;;28.55;19.10;;;20.10;97.50;;;;;;3586348;40;20044;-78
2021/06/29 07:27:46;;;;;;;29.35;18.55;;;20.10;97.50;;;;;;3574355;40;20043;-78
2021/06/29 07:30:12;;;;;;;40.33;21.75;;;20.20;97.50;;;;;;3580270;40;20045;-78
2021/06/29 07:32:42;;;;;;;35.83;20.02;;;20.20;97.30;;;;;;3584325;40;20036;-78
2021/06/29 07:35:10;;;;;;;34.22;21.52;;;20.20;97.20;;;;;;3582403;40;20047;-79
2021/06/29 07:37:35;;;;;;;33.78;21.88;;;20.30;97.20;;;;;;3584977;40;20051;-77
2021/06/29 07:40:02;;;;;;;34.30;21.67;;;20.30;97.00;;;;;;3580709;40;20065;-78
2021/06/29 07:42:28;;;;;;;39.20;22.52;;;20.30;97.00;;;;;;3585633;40;20481;-78
2021/06/29 07:44:54;;;;;;;35.63;21.45;;;20.30;97.00;;;;;;3568183;40;20047;-78
2021/06/29 07:47:20;;;;;;;34.40;24.20;;;20.30;97.10;;;;;;3576657;40;20040;-78
2021/06/29 07:49:46;;;;;;;36.75;25.17;;;20.40;97.00;;;;;;3586759;40;20052;-78
2021/06/29 07:52:12;;;;;;;38.35;28.17;;;20.40;97.00;;;;;;3583066;40;20052;-78
2021/06/29 07:54:38;;;;;;;41.15;26.10;;;20.40;96.80;;;;;;3585574;40;20044;-78
2021/06/29 07:57:04;;;;;;;32.92;23.42;;;20.40;96.80;;;;;;3576444;40;20040;-78
2021/06/29 07:59:30;;;;;;;34.65;23.65;;;20.50;96.80;;;;;;3584381;40;20043;-78
2021/06/29 08:01:55;;;;;;;34.38;23.25;;;20.50;96.80;;;;;;3573289;40;20049;-79
2021/06/29 08:04:21;;;;;;;34.10;21.98;;;20.50;96.80;;;;;;3582776;40;20349;-77
2021/06/29 08:06:54;;;;;;;36.88;24.08;;;20.60;96.70;;;;;;3583595;40;20223;-79
2021/06/29 08:09:22;;;;;;;33.55;21.17;;;20.60;96.70;;;;;;3572294;40;20049;-78
2021/06/29 08:11:48;;;;;;;32.88;20.60;;;20.70;96.60;;;;;;3574177;40;20041;-78
2021/06/29 08:14:14;;;;;;;34.03;20.50;;;20.70;96.70;;;;;;3573980;40;20052;-78
2021/06/29 08:16:42;;;;;;;29.13;21.27;;;20.80;96.60;;;;;;3571875;40;20038;-79
2021/06/29 08:19:08;;;;;;;29.98;18.65;;;20.70;96.40;;;;;;3574472;40;20037;-79
2021/06/29 08:21:34;;;;;;;26.10;16.60;;;20.80;96.50;;;;;;3575837;40;20052;-78
2021/06/29 08:24:00;;;;;;;30.38;17.67;;;20.80;96.50;;;;;;3572051;40;20058;-77
2021/06/29 08:26:26;;;;;;;34.60;18.85;;;20.80;96.50;;;;;;3572390;40;20514;-78
2021/06/29 08:28:52;;;;;;;24.63;17.85;;;20.80;96.30;;;;;;3572213;40;20338;-77
2021/06/29 08:31:21;;;;;;;24.80;15.57;;;20.80;96.40;;;;;;3571665;40;20052;-79
2021/06/29 08:33:48;;;;;;;26.98;18.02;;;20.80;96.40;;;;;;3571733;40;20041;-78
2021/06/29 08:36:15;;;;;;;27.02;16.83;;;20.90;96.30;;;;;;3574382;40;20041;-78
2021/06/29 08:38:41;;;;;;;28.45;15.77;;;20.90;96.30;;;;;;3573615;40;20044;-78
2021/06/29 08:41:07;;;;;;;23.35;14.93;;;20.90;96.30;;;;;;3573562;40;20045;-78
2021/06/29 08:43:33;;;;;;;29.00;16.75;;;20.90;96.30;;;;;;3574730;40;20044;-78
2021/06/29 08:46:01;;;;;;;24.90;16.08;;;21.00;96.30;;;;;;3566791;40;20048;-78
2021/06/29 08:48:27;;;;;;;20.83;14.07;;;21.00;96.30;;;;;;3571599;40;20053;-78
2021/06/29 08:50:53;;;;;;;27.45;16.65;;;21.00;96.20;;;;;;3571568;40;20045;-78
2021/06/29 08:53:19;;;;;;;25.15;17.00;;;21.00;96.20;;;;;;3575637;40;20398;-78
2021/06/29 08:55:48;;;;;;;23.65;16.33;;;21.00;96.20;;;;;;3575585;40;20626;-79
2021/06/29 08:58:19;;;;;;;23.20;17.70;;;21.00;96.20;;;;;;3567647;40;20426;-78
2021/06/29 09:00:46;;;;;;;28.58;16.63;;;21.00;96.30;;;;;;3573013;40;20068;-78
2021/06/29 09:03:12;;;;;;;30.38;18.25;;;21.00;96.20;;;;;;3570748;40;20085;-78
2021/06/29 09:05:44;;;;;;;30.63;18.83;;;21.10;96.20;;;;;;3564987;40;20048;-78
2021/06/29 09:08:11;;;;;;;31.20;16.08;;;21.10;96.10;;;;;;3572478;40;20053;-78
2021/06/29 09:10:39;;;;;;;24.27;17.30;;;21.10;96.30;;;;;;3583373;40;20220;-78
2021/06/29 09:13:07;;;;;;;25.25;14.85;;;21.10;96.20;;;;;;3582994;40;20049;-78
2021/06/29 09:15:46;;;;;;;23.08;15.32;;;21.20;96.30;;;;;;3576600;40;20040;-78
2021/06/29 09:18:21;;;;;;;22.13;15.18;;;21.30;96.00;;;;;;3585583;40;20040;-78
2021/06/29 09:21:03;;;;;;;22.95;15.50;;;21.30;95.90;;;;;;3573724;40;20033;-78
2021/06/29 09:23:33;;;;;;;21.00;15.30;;;21.40;96.00;;;;;;3571200;40;20044;-79
2021/06/29 09:26:07;;;;;;;22.52;15.45;;;21.40;95.90;;;;;;3583461;40;20036;-79
2021/06/29 09:28:35;;;;;;;;;;;21.50;95.80;;;;;;3573101;40;20045;-81
2021/06/29 09:31:13;;;;;;;20.02;15.35;;;21.50;95.20;;;;;;3583212;40;20394;-79
2021/06/29 09:33:42;;;;;;;20.58;14.65;;;21.60;95.60;;;;;;3583124;40;20036;-79
2021/06/29 09:36:18;;;;;;;20.63;15.10;;;21.70;95.50;;;;;;3585014;40;20051;-79
2021/06/29 09:38:46;;;;;;;22.90;15.05;;;21.70;95.50;;;;;;3584160;40;20036;-79
2021/06/29 09:41:17;;;;;;;29.50;15.80;;;21.70;95.60;;;;;;3584767;40;20048;-79
2021/06/29 09:43:45;;;;;;;21.23;13.50;;;21.80;95.50;;;;;;3580352;40;20142;-79
2021/06/29 09:46:16;;;;;;;29.13;16.88;;;21.80;95.40;;;;;;3581321;40;20263;-78
2021/06/29 09:48:48;;;;;;;26.33;16.95;;;21.90;95.20;;;;;;3572369;40;20033;-78
2021/06/29 09:51:30;;;;;;;25.42;17.33;;;21.90;95.10;;;;;;3583264;40;20295;-78
2021/06/29 09:53:58;;;;;;;23.65;16.83;;;21.90;95.20;;;;;;3582373;40;20067;-78
2021/06/29 09:56:37;;;;;;;24.20;15.38;;;22.00;95.20;;;;;;3571360;40;20064;-78
2021/06/29 09:59:03;;;;;;;22.55;15.60;;;22.00;95.10;;;;;;3579055;40;20133;-79
2021/06/29 10:01:29;;;;;;;25.33;16.70;;;22.00;95.10;;;;;;3572944;40;20048;-79
2021/06/29 10:03:57;;;;;;;22.90;16.25;;;22.10;95.00;;;;;;3584192;40;20056;-78
2021/06/29 10:06:25;;;;;;;24.38;17.27;;;22.00;95.00;;;;;;3573733;40;20073;-79
2021/06/29 10:09:15;;;;;;;18.35;16.33;;;22.10;95.00;;;;;;3585191;40;20048;-79
2021/06/29 10:11:53;;;;;;;26.00;18.00;;;22.10;95.10;;;;;;3578044;40;20126;-79
2021/06/29 10:14:24;;;;;;;18.45;14.40;;;22.10;94.70;;;;;;3584741;40;20052;-79
2021/06/29 10:16:57;;;;;;;24.52;14.68;;;22.10;94.80;;;;;;3573555;40;20048;-78
2021/06/29 10:19:34;;;;;;;23.98;15.57;;;22.10;95.00;;;;;;3573771;40;20046;-79
2021/06/29 10:22:03;;;;;;;17.08;15.20;;;22.10;95.10;;;;;;3581422;40;20316;-79
2021/06/29 10:24:34;;;;;;;25.92;18.60;;;22.10;94.90;;;;;;3583671;40;20075;-79
2021/06/29 10:27:02;;;;;;;27.33;18.08;;;22.00;94.90;;;;;;3581152;40;20037;-79
2021/06/29 10:29:30;;;;;;;25.45;20.30;;;22.10;94.90;;;;;;3583925;40;20046;-80
2021/06/29 10:32:04;;;;;;;31.33;20.60;;;22.00;94.90;;;;;;3573746;40;20055;-79
2021/06/29 10:34:31;;;;;;;32.08;20.92;;;21.90;95.00;;;;;;3584948;40;20239;-79
2021/06/29 10:36:57;;;;;;;23.73;18.98;;;21.90;94.90;;;;;;3575558;40;20047;-79
2021/06/29 10:39:26;;;;;;;24.83;19.20;;;21.80;94.90;;;;;;3582607;40;20044;-79
2021/06/29 10:42:07;;;;;;;33.55;19.60;;;21.80;94.80;;;;;;3580894;40;20174;-79
2021/06/29 10:44:43;;;;;;;33.97;22.60;;;21.80;94.90;;;;;;3582944;40;20046;-79
2021/06/29 10:47:27;;;;;;;30.83;22.20;;;21.80;94.90;;;;;;3580815;40;20070;-79
2021/06/29 10:49:55;;;;;;;32.15;22.15;;;21.90;94.90;;;;;;3574381;40;20052;-80
2021/06/29 10:52:31;;;;;;;32.85;21.13;;;21.90;95.00;;;;;;3571147;40;20056;-80
2021/06/29 10:55:03;;;;;;;29.73;21.63;;;22.00;94.70;;;;;;3581646;40;20037;-79
2021/06/29 10:57:41;;;;;;;35.60;22.52;;;22.00;94.80;;;;;;3572083;40;20048;-79
2021/06/29 11:00:16;;;;;;;27.40;17.63;;;22.00;94.50;;;;;;3584967;40;20098;-79
2021/06/29 11:03:02;;;;;;;30.05;21.77;;;22.00;94.80;;;;;;3575040;40;20076;-79
2021/06/29 11:05:30;;;;;;;27.77;19.63;;;22.10;94.90;;;;;;3585913;40;20305;-79
2021/06/29 11:08:11;;;;;;;33.08;21.48;;;22.20;94.70;;;;;;3585450;40;20078;-79
2021/06/29 11:10:39;;;;;;;26.13;20.45;;;22.20;94.70;;;;;;3586441;40;20056;-79
2021/06/29 11:13:06;;;;;;;28.25;20.10;;;22.20;94.80;;;;;;3580421;40;20345;-79
2021/06/29 11:15:50;;;;;;;24.55;20.23;;;22.20;94.70;;;;;;3583200;40;20036;-80
2021/06/29 11:18:18;;;;;;;27.88;19.10;;;22.30;94.60;;;;;;3582108;40;20083;-81
2021/06/29 11:20:48;;;;;;;24.08;20.58;;;22.40;94.70;;;;;;3581176;40;20348;-80
2021/06/29 11:23:37;;;;;;;30.13;20.35;;;22.50;94.50;;;;;;3583152;40;20107;-79
2021/06/29 11:26:12;;;;;;;31.40;21.10;;;22.60;94.40;;;;;;3576197;40;20037;-79
2021/06/29 11:28:45;;;;;;;36.05;24.90;;;22.60;94.10;;;;;;3584361;40;20335;-79
2021/06/29 11:31:20;;;;;;;40.25;25.60;;;22.60;93.70;;;;;;3584945;40;20363;-79
2021/06/29 11:34:03;;;;;;;28.48;21.13;;;22.50;93.60;;;;;;3586360;40;20047;-79
2021/06/29 11:36:29;;;;;;;28.50;22.90;;;22.50;94.10;;;;;;3583489;40;20323;-80
2021/06/29 11:39:17;;;;;;;36.25;24.15;;;22.50;94.30;;;;;;3581547;40;20047;-79
2021/06/29 11:41:56;;;;;;;36.95;23.02;;;22.50;93.90;;;;;;3574579;40;20036;-79
2021/06/29 11:44:22;;;;;;;31.67;22.40;;;22.50;93.90;;;;;;3584605;40;20032;-80
2021/06/29 11:47:05;;;;;;;34.15;22.80;;;22.50;94.10;;;;;;3582370;40;20259;-80
2021/06/29 11:49:45;;;;;;;27.52;21.65;;;22.50;93.60;;;;;;3573593;40;20072;-79
2021/06/29 11:52:14;;;;;;;33.80;22.92;;;22.50;93.70;;;;;;3582868;40;20100;-79
2021/06/29 11:54:45;;;;;;;36.10;26.02;;;22.60;93.90;;;;;;3583213;40;20533;-79
2021/06/29 11:57:31;;;;;;;35.22;23.88;;;22.50;93.70;;;;;;3583480;40;20040;-79
2021/06/29 12:00:00;;;;;;;30.38;22.33;;;22.40;93.60;;;;;;3584732;40;20048;-78
2021/06/29 12:02:31;;;;;;;35.00;25.75;;;22.30;94.20;;;;;;3585553;40;20036;-79
2021/06/29 12:05:01;;;;;;;33.25;23.20;;;22.30;94.20;;;;;;3579238;40;20048;-78
2021/06/29 12:07:55;;;;;;;35.58;25.80;;;22.30;94.40;;;;;;3577234;40;20048;-79
2021/06/29 12:10:30;;;;;;;32.67;24.38;;;22.30;94.30;;;;;;3580127;40;20044;-78
2021/06/29 12:12:58;;;;;;;41.65;28.80;;;22.30;94.30;;;;;;3581844;40;20044;-79
2021/06/29 12:15:27;;;;;;;41.55;26.52;;;22.30;94.10;;;;;;3568134;40;20043;-78
2021/06/29 12:18:15;;;;;;;35.50;26.02;;;22.20;94.10;;;;;;3574501;40;20040;-79
2021/06/29 12:20:49;;;;;;;45.05;29.50;;;22.10;94.30;;;;;;3573156;40;20041;-78
2021/06/29 12:23:29;;;;;;;35.95;26.45;;;22.10;94.20;;;;;;3583727;40;20055;-78
2021/06/29 12:26:15;;;;;;;45.70;30.55;;;22.00;94.40;;;;;;3585601;40;20041;-78
2021/06/29 12:28:41;;;;;;;40.95;27.17;;;22.00;94.50;;;;;;3586024;40;20036;-78
2021/06/29 12:31:09;;;;;;;39.80;27.17;;;21.90;94.50;;;;;;3584748;40;20040;-78
2021/06/29 12:33:44;;;;;;;36.80;23.50;;;21.70;94.40;;;;;;3580404;40;20117;-78
2021/06/29 12:36:14;;;;;;;36.25;25.27;;;21.50;94.80;;;;;;3580263;40;20042;-78
2021/06/29 12:38:46;;;;;;;35.45;26.35;;;21.30;95.10;;;;;;3581926;40;20332;-78
2021/06/29 12:41:21;;;;;;;47.63;25.60;;;21.20;95.20;;;;;;3584430;40;20051;-78